sensor_id;sensor_type;location;lat;lon;timestamp;P1;durP1;ratioP1;P2;durP2;ratioP2
22922;SDS011;11627;51.322;22.816;2023-10-09T00:02:10;7.90;;;2.88;;
22922;SDS011;11627;51.322;22.816;2023-10-09T00:04:41;6.45;;;2.83;;
22922;SDS011;11627;51.322;22.816;2023-10-09T00:07:11;6.53;;;2.72;;
22922;SDS011;11627;51.322;22.816;2023-10-09T00:09:39;9.13;;;3.05;;
22922;SDS011;11627;51.322;22.816;2023-10-09T00:12:18;6.90;;;2.85;;
22922;SDS011;11627;51.322;22.816;2023-10-09T00:14:52;7.13;;;3.25;;
22922;SDS011;11627;51.322;22.816;2023-10-09T00:17:22;5.57;;;2.80;;
22922;SDS011;11627;51.322;22.816;2023-10-09T00:19:49;5.28;;;2.85;;
22922;SDS011;11627;51.322;22.816;2023-10-09T00:22:25;7.63;;;2.92;;
22922;SDS011;11627;51.322;22.816;2023-10-09T00:24:56;8.18;;;2.72;;
22922;SDS011;11627;51.322;22.816;2023-10-09T00:27:40;5.38;;;2.92;;
22922;SDS011;11627;51.322;22.816;2023-10-09T00:30:10;5.70;;;2.88;;
22922;SDS011;11627;51.322;22.816;2023-10-09T00:32:41;6.97;;;2.70;;
22922;SDS011;11627;51.322;22.816;2023-10-09T00:35:36;5.90;;;2.90;;
22922;SDS011;11627;51.322;22.816;2023-10-09T00:38:24;6.20;;;3.08;;
22922;SDS011;11627;51.322;22.816;2023-10-09T00:41:00;5.65;;;3.10;;
22922;SDS011;11627;51.322;22.816;2023-10-09T00:43:30;8.20;;;3.53;;
22922;SDS011;11627;51.322;22.816;2023-10-09T00:45:59;6.45;;;3.13;;
22922;SDS011;11627;51.322;22.816;2023-10-09T00:48:37;8.18;;;3.35;;
22922;SDS011;11627;51.322;22.816;2023-10-09T00:51:06;8.45;;;3.40;;
22922;SDS011;11627;51.322;22.816;2023-10-09T00:53:48;6.93;;;3.22;;
22922;SDS011;11627;51.322;22.816;2023-10-09T00:56:22;7.53;;;3.50;;
22922;SDS011;11627;51.322;22.816;2023-10-09T00:58:51;8.88;;;3.10;;
22922;SDS011;11627;51.322;22.816;2023-10-09T01:01:41;5.93;;;2.80;;
22922;SDS011;11627;51.322;22.816;2023-10-09T01:04:31;5.13;;;2.70;;
22922;SDS011;11627;51.322;22.816;2023-10-09T01:06:58;8.52;;;2.67;;
22922;SDS011;11627;51.322;22.816;2023-10-09T01:09:56;7.50;;;3.88;;
22922;SDS011;11627;51.322;22.816;2023-10-09T01:12:23;9.02;;;2.83;;
22922;SDS011;11627;51.322;22.816;2023-10-09T01:14:50;6.88;;;3.33;;
22922;SDS011;11627;51.322;22.816;2023-10-09T01:17:21;10.32;;;3.70;;
22922;SDS011;11627;51.322;22.816;2023-10-09T01:20:22;11.32;;;4.00;;
22922;SDS011;11627;51.322;22.816;2023-10-09T01:22:55;7.57;;;3.22;;
22922;SDS011;11627;51.322;22.816;2023-10-09T01:25:21;10.10;;;3.72;;
22922;SDS011;11627;51.322;22.816;2023-10-09T01:27:49;10.43;;;3.72;;
22922;SDS011;11627;51.322;22.816;2023-10-09T01:30:17;12.70;;;3.95;;
22922;SDS011;11627;51.322;22.816;2023-10-09T01:32:45;9.90;;;4.18;;
22922;SDS011;11627;51.322;22.816;2023-10-09T01:35:14;7.18;;;2.47;;
22922;SDS011;11627;51.322;22.816;2023-10-09T01:37:48;8.82;;;2.92;;
22922;SDS011;11627;51.322;22.816;2023-10-09T01:40:17;6.10;;;2.58;;
22922;SDS011;11627;51.322;22.816;2023-10-09T01:43:06;6.85;;;2.92;;
22922;SDS011;11627;51.322;22.816;2023-10-09T01:45:36;7.18;;;3.10;;
22922;SDS011;11627;51.322;22.816;2023-10-09T01:48:13;7.93;;;3.03;;
22922;SDS011;11627;51.322;22.816;2023-10-09T01:50:49;5.60;;;2.42;;
22922;SDS011;11627;51.322;22.816;2023-10-09T01:53:19;9.45;;;2.65;;
22922;SDS011;11627;51.322;22.816;2023-10-09T01:55:49;7.05;;;2.65;;
22922;SDS011;11627;51.322;22.816;2023-10-09T01:58:16;5.20;;;2.83;;
22922;SDS011;11627;51.322;22.816;2023-10-09T02:00:43;7.95;;;2.88;;
22922;SDS011;11627;51.322;22.816;2023-10-09T02:03:15;5.97;;;2.88;;
22922;SDS011;11627;51.322;22.816;2023-10-09T02:05:45;7.95;;;3.00;;
22922;SDS011;11627;51.322;22.816;2023-10-09T02:08:12;6.32;;;2.83;;
22922;SDS011;11627;51.322;22.816;2023-10-09T02:10:39;7.15;;;2.92;;
22922;SDS011;11627;51.322;22.816;2023-10-09T02:13:10;4.80;;;2.70;;
22922;SDS011;11627;51.322;22.816;2023-10-09T02:15:37;7.00;;;3.35;;
22922;SDS011;11627;51.322;22.816;2023-10-09T02:18:09;5.38;;;2.85;;
22922;SDS011;11627;51.322;22.816;2023-10-09T02:20:49;8.50;;;3.00;;
22922;SDS011;11627;51.322;22.816;2023-10-09T02:23:32;4.72;;;2.75;;
22922;SDS011;11627;51.322;22.816;2023-10-09T02:26:19;9.57;;;2.60;;
22922;SDS011;11627;51.322;22.816;2023-10-09T02:28:52;6.05;;;2.60;;
22922;SDS011;11627;51.322;22.816;2023-10-09T02:31:27;7.40;;;3.00;;
22922;SDS011;11627;51.322;22.816;2023-10-09T02:34:02;5.95;;;2.72;;
22922;SDS011;11627;51.322;22.816;2023-10-09T02:36:31;6.95;;;2.90;;
22922;SDS011;11627;51.322;22.816;2023-10-09T02:39:01;7.53;;;2.85;;
22922;SDS011;11627;51.322;22.816;2023-10-09T02:41:32;5.82;;;3.00;;
22922;SDS011;11627;51.322;22.816;2023-10-09T02:44:00;6.65;;;3.25;;
22922;SDS011;11627;51.322;22.816;2023-10-09T02:46:37;7.88;;;3.17;;
22922;SDS011;11627;51.322;22.816;2023-10-09T02:49:07;6.28;;;3.20;;
22922;SDS011;11627;51.322;22.816;2023-10-09T02:51:34;7.53;;;3.13;;
22922;SDS011;11627;51.322;22.816;2023-10-09T02:54:08;6.45;;;2.88;;
22922;SDS011;11627;51.322;22.816;2023-10-09T02:56:48;7.60;;;2.90;;
22922;SDS011;11627;51.322;22.816;2023-10-09T02:59:26;5.93;;;3.00;;
22922;SDS011;11627;51.322;22.816;2023-10-09T03:01:53;9.45;;;3.30;;
22922;SDS011;11627;51.322;22.816;2023-10-09T03:04:20;9.52;;;3.60;;
22922;SDS011;11627;51.322;22.816;2023-10-09T03:06:50;6.53;;;2.97;;
22922;SDS011;11627;51.322;22.816;2023-10-09T03:09:20;7.05;;;3.53;;
22922;SDS011;11627;51.322;22.816;2023-10-09T03:11:59;7.72;;;3.20;;
22922;SDS011;11627;51.322;22.816;2023-10-09T03:14:33;7.88;;;2.97;;
22922;SDS011;11627;51.322;22.816;2023-10-09T03:17:04;6.53;;;3.30;;
22922;SDS011;11627;51.322;22.816;2023-10-09T03:19:33;5.00;;;2.97;;
22922;SDS011;11627;51.322;22.816;2023-10-09T03:22:05;7.55;;;3.45;;
22922;SDS011;11627;51.322;22.816;2023-10-09T03:24:35;7.55;;;3.10;;
22922;SDS011;11627;51.322;22.816;2023-10-09T03:27:03;9.93;;;3.83;;
22922;SDS011;11627;51.322;22.816;2023-10-09T03:29:31;8.00;;;3.50;;
22922;SDS011;11627;51.322;22.816;2023-10-09T03:32:00;8.80;;;3.13;;
22922;SDS011;11627;51.322;22.816;2023-10-09T03:34:27;8.18;;;3.20;;
22922;SDS011;11627;51.322;22.816;2023-10-09T03:36:53;8.40;;;3.38;;
22922;SDS011;11627;51.322;22.816;2023-10-09T03:39:33;7.13;;;3.53;;
22922;SDS011;11627;51.322;22.816;2023-10-09T03:42:13;6.68;;;3.65;;
22922;SDS011;11627;51.322;22.816;2023-10-09T03:44:49;6.80;;;3.30;;
22922;SDS011;11627;51.322;22.816;2023-10-09T03:47:19;6.20;;;3.22;;
22922;SDS011;11627;51.322;22.816;2023-10-09T03:49:50;8.63;;;3.50;;
22922;SDS011;11627;51.322;22.816;2023-10-09T03:52:38;6.75;;;3.10;;
22922;SDS011;11627;51.322;22.816;2023-10-09T03:55:05;9.82;;;3.60;;
22922;SDS011;11627;51.322;22.816;2023-10-09T03:57:38;11.35;;;4.18;;
22922;SDS011;11627;51.322;22.816;2023-10-09T04:00:05;8.38;;;3.45;;
22922;SDS011;11627;51.322;22.816;2023-10-09T04:02:37;7.78;;;3.72;;
22922;SDS011;11627;51.322;22.816;2023-10-09T04:05:04;7.65;;;3.75;;
22922;SDS011;11627;51.322;22.816;2023-10-09T04:07:34;9.75;;;4.15;;
22922;SDS011;11627;51.322;22.816;2023-10-09T04:10:03;10.57;;;4.20;;
22922;SDS011;11627;51.322;22.816;2023-10-09T04:12:53;8.73;;;4.80;;
22922;SDS011;11627;51.322;22.816;2023-10-09T04:15:24;9.50;;;4.10;;
22922;SDS011;11627;51.322;22.816;2023-10-09T04:17:52;10.93;;;4.00;;
22922;SDS011;11627;51.322;22.816;2023-10-09T04:20:19;7.35;;;3.28;;
22922;SDS011;11627;51.322;22.816;2023-10-09T04:22:45;8.68;;;3.47;;
22922;SDS011;11627;51.322;22.816;2023-10-09T04:25:21;7.13;;;3.80;;
22922;SDS011;11627;51.322;22.816;2023-10-09T04:27:56;9.27;;;3.90;;
22922;SDS011;11627;51.322;22.816;2023-10-09T04:30:44;7.97;;;4.10;;
22922;SDS011;11627;51.322;22.816;2023-10-09T04:33:22;7.10;;;4.05;;
22922;SDS011;11627;51.322;22.816;2023-10-09T04:36:10;13.85;;;4.35;;
22922;SDS011;11627;51.322;22.816;2023-10-09T04:38:46;7.38;;;3.95;;
22922;SDS011;11627;51.322;22.816;2023-10-09T04:41:53;8.52;;;4.03;;
22922;SDS011;11627;51.322;22.816;2023-10-09T04:44:41;9.50;;;4.25;;
22922;SDS011;11627;51.322;22.816;2023-10-09T04:47:28;8.38;;;4.07;;
22922;SDS011;11627;51.322;22.816;2023-10-09T04:50:06;11.00;;;4.05;;
22922;SDS011;11627;51.322;22.816;2023-10-09T04:52:46;8.57;;;3.47;;
22922;SDS011;11627;51.322;22.816;2023-10-09T04:55:16;8.02;;;3.78;;
22922;SDS011;11627;51.322;22.816;2023-10-09T04:58:07;8.88;;;3.28;;
22922;SDS011;11627;51.322;22.816;2023-10-09T05:00:39;7.00;;;3.22;;
22922;SDS011;11627;51.322;22.816;2023-10-09T05:03:09;7.63;;;3.60;;
22922;SDS011;11627;51.322;22.816;2023-10-09T05:05:58;8.48;;;3.00;;
22922;SDS011;11627;51.322;22.816;2023-10-09T05:08:29;6.93;;;3.13;;
22922;SDS011;11627;51.322;22.816;2023-10-09T05:10:58;6.78;;;3.50;;
22922;SDS011;11627;51.322;22.816;2023-10-09T05:13:31;7.30;;;3.38;;
22922;SDS011;11627;51.322;22.816;2023-10-09T05:18:52;6.57;;;3.22;;
22922;SDS011;11627;51.322;22.816;2023-10-09T05:21:39;6.32;;;2.83;;
22922;SDS011;11627;51.322;22.816;2023-10-09T05:24:32;8.13;;;2.97;;
22922;SDS011;11627;51.322;22.816;2023-10-09T05:27:13;6.57;;;2.88;;
22922;SDS011;11627;51.322;22.816;2023-10-09T05:30:06;5.65;;;3.08;;
22922;SDS011;11627;51.322;22.816;2023-10-09T05:32:55;10.38;;;2.90;;
22922;SDS011;11627;51.322;22.816;2023-10-09T05:35:46;6.25;;;2.50;;
22922;SDS011;11627;51.322;22.816;2023-10-09T05:38:33;12.02;;;3.75;;
22922;SDS011;11627;51.322;22.816;2023-10-09T05:41:21;8.68;;;2.97;;
22922;SDS011;11627;51.322;22.816;2023-10-09T05:44:18;9.25;;;2.75;;
22922;SDS011;11627;51.322;22.816;2023-10-09T05:47:04;9.05;;;2.78;;
22922;SDS011;11627;51.322;22.816;2023-10-09T05:49:50;5.97;;;2.92;;
22922;SDS011;11627;51.322;22.816;2023-10-09T05:52:35;6.85;;;2.90;;
22922;SDS011;11627;51.322;22.816;2023-10-09T05:55:07;5.90;;;3.17;;
22922;SDS011;11627;51.322;22.816;2023-10-09T05:57:56;6.70;;;2.80;;
22922;SDS011;11627;51.322;22.816;2023-10-09T06:00:42;5.63;;;2.83;;
22922;SDS011;11627;51.322;22.816;2023-10-09T06:03:26;6.85;;;3.28;;
22922;SDS011;11627;51.322;22.816;2023-10-09T06:06:15;6.70;;;3.20;;
22922;SDS011;11627;51.322;22.816;2023-10-09T06:09:05;7.43;;;2.80;;
22922;SDS011;11627;51.322;22.816;2023-10-09T06:11:36;8.60;;;3.40;;
22922;SDS011;11627;51.322;22.816;2023-10-09T06:14:05;8.25;;;3.05;;
22922;SDS011;11627;51.322;22.816;2023-10-09T06:16:35;6.57;;;3.33;;
22922;SDS011;11627;51.322;22.816;2023-10-09T06:19:06;7.85;;;3.13;;
22922;SDS011;11627;51.322;22.816;2023-10-09T06:21:59;6.60;;;3.08;;
22922;SDS011;11627;51.322;22.816;2023-10-09T06:24:30;7.78;;;3.28;;
22922;SDS011;11627;51.322;22.816;2023-10-09T06:27:16;7.47;;;3.13;;
22922;SDS011;11627;51.322;22.816;2023-10-09T06:29:59;6.90;;;2.83;;
22922;SDS011;11627;51.322;22.816;2023-10-09T06:32:39;8.73;;;3.47;;
22922;SDS011;11627;51.322;22.816;2023-10-09T06:35:26;7.53;;;3.63;;
22922;SDS011;11627;51.322;22.816;2023-10-09T06:38:01;11.52;;;3.47;;
22922;SDS011;11627;51.322;22.816;2023-10-09T06:40:34;7.20;;;3.40;;
22922;SDS011;11627;51.322;22.816;2023-10-09T06:43:22;10.68;;;3.42;;
22922;SDS011;11627;51.322;22.816;2023-10-09T06:45:53;6.57;;;3.13;;
22922;SDS011;11627;51.322;22.816;2023-10-09T06:48:41;9.07;;;3.28;;
22922;SDS011;11627;51.322;22.816;2023-10-09T06:51:28;7.75;;;3.20;;
22922;SDS011;11627;51.322;22.816;2023-10-09T06:53:54;5.10;;;2.88;;
22922;SDS011;11627;51.322;22.816;2023-10-09T06:56:24;5.72;;;2.95;;
22922;SDS011;11627;51.322;22.816;2023-10-09T06:59:00;7.55;;;2.97;;
22922;SDS011;11627;51.322;22.816;2023-10-09T07:01:50;7.55;;;2.90;;
22922;SDS011;11627;51.322;22.816;2023-10-09T07:04:37;8.63;;;3.05;;
22922;SDS011;11627;51.322;22.816;2023-10-09T07:07:05;8.70;;;4.88;;
22922;SDS011;11627;51.322;22.816;2023-10-09T07:09:51;11.55;;;5.13;;
22922;SDS011;11627;51.322;22.816;2023-10-09T07:12:46;20.95;;;11.90;;
22922;SDS011;11627;51.322;22.816;2023-10-09T07:15:20;38.20;;;22.17;;
22922;SDS011;11627;51.322;22.816;2023-10-09T07:18:10;33.53;;;18.13;;
22922;SDS011;11627;51.322;22.816;2023-10-09T07:20:52;24.33;;;11.52;;
22922;SDS011;11627;51.322;22.816;2023-10-09T07:23:25;21.48;;;10.48;;
22922;SDS011;11627;51.322;22.816;2023-10-09T07:26:05;12.02;;;4.38;;
22922;SDS011;11627;51.322;22.816;2023-10-09T07:28:45;12.15;;;4.35;;
22922;SDS011;11627;51.322;22.816;2023-10-09T07:31:18;10.50;;;4.03;;
22922;SDS011;11627;51.322;22.816;2023-10-09T07:33:53;8.30;;;3.13;;
22922;SDS011;11627;51.322;22.816;2023-10-09T07:36:23;9.55;;;3.20;;
22922;SDS011;11627;51.322;22.816;2023-10-09T07:39:04;7.55;;;3.17;;
22922;SDS011;11627;51.322;22.816;2023-10-09T07:41:43;8.35;;;3.25;;
22922;SDS011;11627;51.322;22.816;2023-10-09T07:44:28;7.43;;;3.03;;
22922;SDS011;11627;51.322;22.816;2023-10-09T07:47:04;9.32;;;3.47;;
22922;SDS011;11627;51.322;22.816;2023-10-09T07:49:45;7.35;;;3.00;;
22922;SDS011;11627;51.322;22.816;2023-10-09T07:52:20;6.28;;;2.90;;
22922;SDS011;11627;51.322;22.816;2023-10-09T07:55:07;7.80;;;3.20;;
22922;SDS011;11627;51.322;22.816;2023-10-09T07:57:53;7.10;;;3.10;;
22922;SDS011;11627;51.322;22.816;2023-10-09T08:00:20;9.25;;;3.10;;
22922;SDS011;11627;51.322;22.816;2023-10-09T08:03:26;11.05;;;3.72;;
22922;SDS011;11627;51.322;22.816;2023-10-09T08:05:57;10.23;;;2.85;;
22922;SDS011;11627;51.322;22.816;2023-10-09T08:08:43;8.38;;;3.47;;
22922;SDS011;11627;51.322;22.816;2023-10-09T08:11:30;7.57;;;3.28;;
22922;SDS011;11627;51.322;22.816;2023-10-09T08:14:06;5.18;;;2.60;;
22922;SDS011;11627;51.322;22.816;2023-10-09T08:16:46;6.40;;;3.25;;
22922;SDS011;11627;51.322;22.816;2023-10-09T08:19:32;6.72;;;3.20;;
22922;SDS011;11627;51.322;22.816;2023-10-09T08:21:58;7.25;;;3.75;;
22922;SDS011;11627;51.322;22.816;2023-10-09T08:24:43;9.10;;;3.58;;
22922;SDS011;11627;51.322;22.816;2023-10-09T08:27:17;7.32;;;3.55;;
22922;SDS011;11627;51.322;22.816;2023-10-09T08:30:14;7.50;;;2.85;;
22922;SDS011;11627;51.322;22.816;2023-10-09T08:32:53;9.63;;;3.40;;
22922;SDS011;11627;51.322;22.816;2023-10-09T08:35:30;10.30;;;3.10;;
22922;SDS011;11627;51.322;22.816;2023-10-09T08:38:02;8.98;;;2.70;;
22922;SDS011;11627;51.322;22.816;2023-10-09T08:40:37;5.57;;;2.78;;
22922;SDS011;11627;51.322;22.816;2023-10-09T08:43:15;8.85;;;3.25;;
22922;SDS011;11627;51.322;22.816;2023-10-09T08:48:35;8.13;;;3.70;;
22922;SDS011;11627;51.322;22.816;2023-10-09T08:51:04;7.35;;;2.83;;
22922;SDS011;11627;51.322;22.816;2023-10-09T08:53:32;8.15;;;2.90;;
22922;SDS011;11627;51.322;22.816;2023-10-09T08:55:58;6.85;;;3.08;;
22922;SDS011;11627;51.322;22.816;2023-10-09T08:58:25;7.95;;;3.38;;
22922;SDS011;11627;51.322;22.816;2023-10-09T09:00:58;6.70;;;2.80;;
22922;SDS011;11627;51.322;22.816;2023-10-09T09:03:26;9.82;;;3.20;;
22922;SDS011;11627;51.322;22.816;2023-10-09T09:06:04;7.53;;;2.88;;
22922;SDS011;11627;51.322;22.816;2023-10-09T09:08:32;8.88;;;3.33;;
22922;SDS011;11627;51.322;22.816;2023-10-09T09:11:10;8.93;;;3.30;;
22922;SDS011;11627;51.322;22.816;2023-10-09T09:16:40;12.38;;;3.80;;
22922;SDS011;11627;51.322;22.816;2023-10-09T09:19:14;9.82;;;3.47;;
22922;SDS011;11627;51.322;22.816;2023-10-09T09:21:48;9.10;;;3.55;;
22922;SDS011;11627;51.322;22.816;2023-10-09T09:24:24;9.20;;;3.30;;
22922;SDS011;11627;51.322;22.816;2023-10-09T09:26:55;8.35;;;3.50;;
22922;SDS011;11627;51.322;22.816;2023-10-09T09:32:10;10.82;;;4.28;;
22922;SDS011;11627;51.322;22.816;2023-10-09T09:34:44;8.48;;;4.15;;
22922;SDS011;11627;51.322;22.816;2023-10-09T09:37:35;7.55;;;3.20;;
22922;SDS011;11627;51.322;22.816;2023-10-09T09:40:04;7.53;;;2.97;;
22922;SDS011;11627;51.322;22.816;2023-10-09T09:42:50;8.68;;;3.00;;
22922;SDS011;11627;51.322;22.816;2023-10-09T09:45:17;7.97;;;3.10;;
22922;SDS011;11627;51.322;22.816;2023-10-09T09:47:49;7.72;;;3.28;;
22922;SDS011;11627;51.322;22.816;2023-10-09T09:50:18;7.28;;;2.70;;
22922;SDS011;11627;51.322;22.816;2023-10-09T09:52:54;8.63;;;2.70;;
22922;SDS011;11627;51.322;22.816;2023-10-09T09:55:24;7.38;;;2.80;;
22922;SDS011;11627;51.322;22.816;2023-10-09T09:58:07;5.53;;;2.45;;
22922;SDS011;11627;51.322;22.816;2023-10-09T10:00:45;7.43;;;2.40;;
22922;SDS011;11627;51.322;22.816;2023-10-09T10:06:09;8.65;;;2.90;;
22922;SDS011;11627;51.322;22.816;2023-10-09T10:08:37;6.88;;;2.67;;
22922;SDS011;11627;51.322;22.816;2023-10-09T10:11:08;8.75;;;3.13;;
22922;SDS011;11627;51.322;22.816;2023-10-09T10:14:13;7.32;;;2.67;;
22922;SDS011;11627;51.322;22.816;2023-10-09T10:17:02;7.93;;;3.50;;
22922;SDS011;11627;51.322;22.816;2023-10-09T10:22:45;9.13;;;3.70;;
22922;SDS011;11627;51.322;22.816;2023-10-09T10:30:54;12.10;;;3.90;;
22922;SDS011;11627;51.322;22.816;2023-10-09T10:33:22;7.13;;;3.35;;
22922;SDS011;11627;51.322;22.816;2023-10-09T10:35:48;10.68;;;3.58;;
22922;SDS011;11627;51.322;22.816;2023-10-09T10:38:53;9.93;;;3.15;;
22922;SDS011;11627;51.322;22.816;2023-10-09T10:41:29;7.10;;;2.83;;
22922;SDS011;11627;51.322;22.816;2023-10-09T10:44:15;10.40;;;2.33;;
22922;SDS011;11627;51.322;22.816;2023-10-09T10:47:05;5.68;;;2.92;;
22922;SDS011;11627;51.322;22.816;2023-10-09T10:50:02;4.43;;;2.20;;
22922;SDS011;11627;51.322;22.816;2023-10-09T10:53:13;4.63;;;2.05;;
22922;SDS011;11627;51.322;22.816;2023-10-09T10:56:02;5.55;;;2.60;;
22922;SDS011;11627;51.322;22.816;2023-10-09T10:58:40;4.40;;;1.98;;
22922;SDS011;11627;51.322;22.816;2023-10-09T11:01:32;3.38;;;2.08;;
22922;SDS011;11627;51.322;22.816;2023-10-09T11:04:23;3.92;;;1.80;;
22922;SDS011;11627;51.322;22.816;2023-10-09T11:07:11;2.75;;;1.60;;
22922;SDS011;11627;51.322;22.816;2023-10-09T11:09:50;5.78;;;1.80;;
22922;SDS011;11627;51.322;22.816;2023-10-09T11:12:23;4.03;;;1.80;;
22922;SDS011;11627;51.322;22.816;2023-10-09T11:15:04;5.10;;;2.03;;
22922;SDS011;11627;51.322;22.816;2023-10-09T11:17:45;5.15;;;2.13;;
22922;SDS011;11627;51.322;22.816;2023-10-09T11:20:52;4.38;;;2.28;;
22922;SDS011;11627;51.322;22.816;2023-10-09T11:23:30;4.32;;;2.13;;
22922;SDS011;11627;51.322;22.816;2023-10-09T11:26:18;4.93;;;1.85;;
22922;SDS011;11627;51.322;22.816;2023-10-09T11:32:04;4.80;;;1.92;;
22922;SDS011;11627;51.322;22.816;2023-10-09T11:34:43;4.95;;;2.15;;
22922;SDS011;11627;51.322;22.816;2023-10-09T11:37:19;5.63;;;2.13;;
22922;SDS011;11627;51.322;22.816;2023-10-09T11:39:56;6.38;;;2.40;;
22922;SDS011;11627;51.322;22.816;2023-10-09T11:42:23;4.45;;;1.90;;
22922;SDS011;11627;51.322;22.816;2023-10-09T11:45:19;3.22;;;1.75;;
22922;SDS011;11627;51.322;22.816;2023-10-09T11:47:56;5.93;;;1.98;;
22922;SDS011;11627;51.322;22.816;2023-10-09T11:50:52;4.22;;;2.00;;
22922;SDS011;11627;51.322;22.816;2023-10-09T11:53:42;4.78;;;1.92;;
22922;SDS011;11627;51.322;22.816;2023-10-09T11:56:15;5.18;;;2.10;;
22922;SDS011;11627;51.322;22.816;2023-10-09T11:58:48;6.72;;;2.00;;
22922;SDS011;11627;51.322;22.816;2023-10-09T12:01:19;5.18;;;2.50;;
22922;SDS011;11627;51.322;22.816;2023-10-09T12:04:05;3.35;;;1.90;;
22922;SDS011;11627;51.322;22.816;2023-10-09T12:06:34;4.35;;;2.00;;
22922;SDS011;11627;51.322;22.816;2023-10-09T12:09:01;7.35;;;2.50;;
22922;SDS011;11627;51.322;22.816;2023-10-09T12:11:30;5.85;;;2.20;;
22922;SDS011;11627;51.322;22.816;2023-10-09T12:13:59;5.07;;;2.63;;
22922;SDS011;11627;51.322;22.816;2023-10-09T12:16:27;5.35;;;2.03;;
22922;SDS011;11627;51.322;22.816;2023-10-09T12:18:53;7.38;;;2.60;;
22922;SDS011;11627;51.322;22.816;2023-10-09T12:21:21;7.13;;;2.85;;
22922;SDS011;11627;51.322;22.816;2023-10-09T12:23:50;7.85;;;3.10;;
22922;SDS011;11627;51.322;22.816;2023-10-09T12:26:23;6.15;;;2.83;;
22922;SDS011;11627;51.322;22.816;2023-10-09T12:28:50;6.20;;;3.08;;
22922;SDS011;11627;51.322;22.816;2023-10-09T12:31:18;9.25;;;2.88;;
22922;SDS011;11627;51.322;22.816;2023-10-09T12:33:45;10.05;;;3.58;;
22922;SDS011;11627;51.322;22.816;2023-10-09T12:36:17;9.35;;;3.50;;
22922;SDS011;11627;51.322;22.816;2023-10-09T12:38:46;8.95;;;3.22;;
22922;SDS011;11627;51.322;22.816;2023-10-09T12:41:28;6.57;;;3.45;;
22922;SDS011;11627;51.322;22.816;2023-10-09T12:43:59;8.00;;;3.35;;
22922;SDS011;11627;51.322;22.816;2023-10-09T12:46:27;9.90;;;4.18;;
22922;SDS011;11627;51.322;22.816;2023-10-09T12:48:57;10.98;;;4.18;;
22922;SDS011;11627;51.322;22.816;2023-10-09T12:51:24;10.45;;;4.10;;
22922;SDS011;11627;51.322;22.816;2023-10-09T12:53:56;7.93;;;4.03;;
22922;SDS011;11627;51.322;22.816;2023-10-09T12:56:24;9.43;;;4.32;;
22922;SDS011;11627;51.322;22.816;2023-10-09T12:59:06;11.52;;;4.47;;
22922;SDS011;11627;51.322;22.816;2023-10-09T13:01:34;8.90;;;4.03;;
22922;SDS011;11627;51.322;22.816;2023-10-09T13:04:13;7.35;;;4.03;;
22922;SDS011;11627;51.322;22.816;2023-10-09T13:06:43;8.25;;;3.92;;
22922;SDS011;11627;51.322;22.816;2023-10-09T13:09:11;8.50;;;3.80;;
22922;SDS011;11627;51.322;22.816;2023-10-09T13:11:50;11.38;;;4.07;;
22922;SDS011;11627;51.322;22.816;2023-10-09T13:14:19;14.70;;;4.55;;
22922;SDS011;11627;51.322;22.816;2023-10-09T13:16:48;11.27;;;4.80;;
22922;SDS011;11627;51.322;22.816;2023-10-09T13:19:19;9.48;;;4.60;;
22922;SDS011;11627;51.322;22.816;2023-10-09T13:21:49;13.73;;;5.07;;
22922;SDS011;11627;51.322;22.816;2023-10-09T13:24:18;12.02;;;4.95;;
22922;SDS011;11627;51.322;22.816;2023-10-09T13:26:49;16.58;;;7.97;;
22922;SDS011;11627;51.322;22.816;2023-10-09T13:29:23;12.43;;;6.40;;
22922;SDS011;11627;51.322;22.816;2023-10-09T13:31:51;17.75;;;7.85;;
22922;SDS011;11627;51.322;22.816;2023-10-09T13:34:22;17.92;;;9.85;;
22922;SDS011;11627;51.322;22.816;2023-10-09T13:36:54;14.55;;;7.38;;
22922;SDS011;11627;51.322;22.816;2023-10-09T13:39:24;15.43;;;6.28;;
22922;SDS011;11627;51.322;22.816;2023-10-09T13:44:32;14.98;;;5.22;;
22922;SDS011;11627;51.322;22.816;2023-10-09T13:47:04;17.50;;;6.10;;
22922;SDS011;11627;51.322;22.816;2023-10-09T13:49:31;15.02;;;5.55;;
22922;SDS011;11627;51.322;22.816;2023-10-09T13:52:00;16.55;;;6.38;;
22922;SDS011;11627;51.322;22.816;2023-10-09T13:54:32;21.02;;;6.55;;
22922;SDS011;11627;51.322;22.816;2023-10-09T13:57:02;10.40;;;4.97;;
22922;SDS011;11627;51.322;22.816;2023-10-09T13:59:31;12.25;;;4.97;;
22922;SDS011;11627;51.322;22.816;2023-10-09T14:02:01;12.35;;;5.53;;
22922;SDS011;11627;51.322;22.816;2023-10-09T14:04:46;12.20;;;5.95;;
22922;SDS011;11627;51.322;22.816;2023-10-09T14:07:14;11.50;;;6.05;;
22922;SDS011;11627;51.322;22.816;2023-10-09T14:09:43;15.15;;;6.15;;
22922;SDS011;11627;51.322;22.816;2023-10-09T14:12:22;14.02;;;6.10;;
22922;SDS011;11627;51.322;22.816;2023-10-09T14:14:50;13.43;;;6.40;;
22922;SDS011;11627;51.322;22.816;2023-10-09T14:17:20;12.13;;;5.80;;
22922;SDS011;11627;51.322;22.816;2023-10-09T14:19:54;16.65;;;5.90;;
22922;SDS011;11627;51.322;22.816;2023-10-09T14:22:41;12.65;;;5.28;;
22922;SDS011;11627;51.322;22.816;2023-10-09T14:25:08;14.13;;;5.45;;
22922;SDS011;11627;51.322;22.816;2023-10-09T14:27:40;13.45;;;5.80;;
22922;SDS011;11627;51.322;22.816;2023-10-09T14:30:09;17.02;;;6.47;;
22922;SDS011;11627;51.322;22.816;2023-10-09T14:32:39;13.45;;;5.88;;
22922;SDS011;11627;51.322;22.816;2023-10-09T14:35:17;17.13;;;6.45;;
22922;SDS011;11627;51.322;22.816;2023-10-09T14:37:46;15.50;;;6.82;;
22922;SDS011;11627;51.322;22.816;2023-10-09T14:40:12;17.27;;;6.70;;
22922;SDS011;11627;51.322;22.816;2023-10-09T14:42:47;13.00;;;6.38;;
22922;SDS011;11627;51.322;22.816;2023-10-09T14:45:18;13.98;;;6.07;;
22922;SDS011;11627;51.322;22.816;2023-10-09T14:47:48;13.52;;;5.93;;
22922;SDS011;11627;51.322;22.816;2023-10-09T14:50:23;12.85;;;5.65;;
22922;SDS011;11627;51.322;22.816;2023-10-09T14:52:50;17.60;;;6.40;;
22922;SDS011;11627;51.322;22.816;2023-10-09T14:55:17;15.40;;;6.72;;
22922;SDS011;11627;51.322;22.816;2023-10-09T14:57:56;14.50;;;5.40;;
22922;SDS011;11627;51.322;22.816;2023-10-09T15:00:25;12.30;;;5.43;;
22922;SDS011;11627;51.322;22.816;2023-10-09T15:02:53;13.40;;;6.15;;
22922;SDS011;11627;51.322;22.816;2023-10-09T15:05:25;13.77;;;5.57;;
22922;SDS011;11627;51.322;22.816;2023-10-09T15:07:52;12.48;;;5.70;;
22922;SDS011;11627;51.322;22.816;2023-10-09T15:10:19;14.13;;;5.43;;
22922;SDS011;11627;51.322;22.816;2023-10-09T15:12:46;13.48;;;6.03;;
22922;SDS011;11627;51.322;22.816;2023-10-09T15:15:16;13.18;;;5.57;;
22922;SDS011;11627;51.322;22.816;2023-10-09T15:17:48;12.98;;;5.72;;
22922;SDS011;11627;51.322;22.816;2023-10-09T15:20:14;16.85;;;6.82;;
22922;SDS011;11627;51.322;22.816;2023-10-09T15:22:44;12.90;;;6.07;;
22922;SDS011;11627;51.322;22.816;2023-10-09T15:25:11;14.80;;;6.03;;
22922;SDS011;11627;51.322;22.816;2023-10-09T15:27:42;12.88;;;5.60;;
22922;SDS011;11627;51.322;22.816;2023-10-09T15:30:10;15.65;;;6.72;;
22922;SDS011;11627;51.322;22.816;2023-10-09T15:32:43;27.38;;;9.60;;
22922;SDS011;11627;51.322;22.816;2023-10-09T15:35:12;37.53;;;15.35;;
22922;SDS011;11627;51.322;22.816;2023-10-09T15:37:39;143.77;;;40.90;;
22922;SDS011;11627;51.322;22.816;2023-10-09T15:40:09;94.38;;;30.92;;
22922;SDS011;11627;51.322;22.816;2023-10-09T15:42:43;52.83;;;18.30;;
22922;SDS011;11627;51.322;22.816;2023-10-09T15:45:15;21.35;;;8.98;;
22922;SDS011;11627;51.322;22.816;2023-10-09T15:47:43;13.52;;;6.72;;
22922;SDS011;11627;51.322;22.816;2023-10-09T15:50:11;17.80;;;6.30;;